Time;durP1;ratioP1;P1;durP2;ratioP2;P2;SDS_P1;SDS_P2;PMS_P1;PMS_P2;Temp;Humidity;BMP_temperature;BMP_pressure;BME280_temperature;BME280_humidity;BME280_pressure;Samples;Min_cycle;Max_cycle;Signal;HPM_P1;HPM_P2
2021/12/28 00:00:24;;;;;;;46.57;24.63;;;1.30;92.00;;;;;;5056634;28;20266;-90
2021/12/28 00:02:50;;;;;;;38.03;24.53;;;1.30;92.00;;;;;;5056400;28;20205;-91
2021/12/28 00:05:17;;;;;;;36.30;22.83;;;1.40;92.00;;;;;;5056511;28;20210;-90
2021/12/28 00:07:43;;;;;;;38.70;24.77;;;1.30;92.00;;;;;;5056582;28;20202;-90
2021/12/28 00:10:10;;;;;;;34.97;25.00;;;1.30;92.00;;;;;;5056844;28;20224;-91
2021/12/28 00:12:38;;;;;;;40.97;25.53;;;1.30;92.10;;;;;;5056457;28;20186;-91
2021/12/28 00:18:00;;;;;;;44.70;24.77;;;1.40;92.00;;;;;;5074505;28;20159;-91
2021/12/28 00:20:33;;;;;;;34.10;23.30;;;1.40;92.10;;;;;;5074120;28;20157;-90
2021/12/28 00:23:01;;;;;;;37.00;23.93;;;1.40;92.10;;;;;;5056287;28;20207;-90
2021/12/28 00:25:27;;;;;;;39.00;25.60;;;1.40;92.00;;;;;;5055969;28;20199;-90
2021/12/28 00:27:53;;;;;;;38.87;24.73;;;1.40;92.00;;;;;;5056466;28;20181;-90
2021/12/28 00:30:20;;;;;;;32.93;22.63;;;1.40;92.00;;;;;;5056794;28;20200;-90
2021/12/28 00:32:51;;;;;;;35.87;24.20;;;1.40;92.00;;;;;;5055975;28;20256;-90
2021/12/28 00:35:17;;;;;;;38.87;24.13;;;1.40;92.00;;;;;;5056637;28;20225;-90
2021/12/28 00:37:43;;;;;;;36.20;23.20;;;1.40;92.00;;;;;;5056178;28;20598;-90
2021/12/28 00:40:09;;;;;;;36.17;23.30;;;1.50;92.00;;;;;;5055969;28;20179;-91
2021/12/28 00:42:34;;;;;;;39.77;24.40;;;1.40;92.00;;;;;;5055846;28;20717;-90
2021/12/28 00:45:00;;;;;;;38.83;24.40;;;1.50;92.00;;;;;;5055890;28;20180;-90
2021/12/28 00:47:26;;;;;;;40.30;24.80;;;1.40;92.00;;;;;;5055827;28;20237;-90
2021/12/28 00:49:51;;;;;;;39.13;23.67;;;1.50;92.00;;;;;;5056816;28;20182;-90
2021/12/28 00:52:17;;;;;;;35.00;24.37;;;1.40;92.00;;;;;;5055620;28;20193;-90
2021/12/28 00:54:42;;;;;;;35.80;24.63;;;1.40;92.00;;;;;;5055779;28;20271;-90
2021/12/28 00:57:08;;;;;;;40.27;24.37;;;1.40;92.00;;;;;;5055578;28;20295;-90
2021/12/28 00:59:34;;;;;;;34.37;24.23;;;1.40;92.00;;;;;;5055679;28;20180;-90
2021/12/28 01:01:59;;;;;;;35.60;23.43;;;1.40;92.10;;;;;;5056132;28;20646;-90
2021/12/28 01:04:26;;;;;;;39.57;24.50;;;1.40;92.10;;;;;;5055558;28;20214;-90
2021/12/28 01:06:52;;;;;;;35.87;24.10;;;1.40;92.10;;;;;;5055417;28;20293;-90
2021/12/28 01:09:17;;;;;;;36.27;24.00;;;1.40;92.20;;;;;;5055445;28;20286;-90
2021/12/28 01:11:43;;;;;;;37.33;23.13;;;1.40;92.20;;;;;;5055541;28;20181;-90
2021/12/28 01:14:09;;;;;;;38.57;24.33;;;1.40;92.20;;;;;;5055708;28;20271;-90
2021/12/28 01:16:35;;;;;;;36.20;23.20;;;1.40;92.20;;;;;;5055482;28;20243;-90
2021/12/28 01:19:00;;;;;;;38.23;24.80;;;1.40;92.30;;;;;;5055640;28;20645;-90
2021/12/28 01:21:26;;;;;;;38.23;24.20;;;1.40;92.30;;;;;;5055695;28;20243;-90
2021/12/28 01:23:52;;;;;;;36.00;23.90;;;1.40;92.30;;;;;;5055255;28;20209;-90
2021/12/28 01:26:18;;;;;;;37.00;23.57;;;1.40;92.30;;;;;;5055941;28;20198;-90
2021/12/28 01:28:43;;;;;;;39.47;25.17;;;1.50;92.40;;;;;;5055378;28;20177;-90
2021/12/28 01:31:09;;;;;;;37.80;24.60;;;1.50;92.40;;;;;;5055214;28;20208;-90
2021/12/28 01:33:35;;;;;;;35.83;24.27;;;1.50;92.40;;;;;;5056092;28;20180;-90
2021/12/28 01:36:01;;;;;;;37.63;24.33;;;1.50;92.50;;;;;;5055266;28;20205;-90
2021/12/28 01:38:26;;;;;;;35.37;24.17;;;1.50;92.50;;;;;;5055261;28;20192;-90
2021/12/28 01:40:53;;;;;;;36.50;24.93;;;1.50;92.50;;;;;;5055660;28;20181;-90
2021/12/28 01:43:21;;;;;;;37.70;24.47;;;1.60;92.50;;;;;;5055846;28;20258;-90
2021/12/28 01:45:50;;;;;;;39.03;25.23;;;1.60;92.50;;;;;;5054922;28;20206;-90
2021/12/28 01:48:30;;;;;;;36.97;24.23;;;1.60;92.40;;;;;;5055014;28;20642;-90
2021/12/28 01:50:59;;;;;;;39.07;25.40;;;1.60;92.40;;;;;;5055042;28;20222;-90
2021/12/28 01:53:27;;;;;;;36.67;23.90;;;1.60;92.40;;;;;;5055041;28;20212;-91
2021/12/28 01:55:56;;;;;;;36.03;24.30;;;1.60;92.40;;;;;;5054976;28;20670;-90
2021/12/28 01:58:22;;;;;;;40.87;25.63;;;1.60;92.40;;;;;;5055351;28;20611;-90
2021/12/28 02:00:50;;;;;;;40.20;25.10;;;1.60;92.40;;;;;;5055054;28;20185;-90
2021/12/28 02:03:18;;;;;;;36.17;24.97;;;1.60;92.50;;;;;;5055988;28;20209;-90
2021/12/28 02:05:44;;;;;;;41.37;24.70;;;1.60;92.40;;;;;;5072829;28;20277;-90
2021/12/28 02:08:14;;;;;;;37.37;25.17;;;1.60;92.40;;;;;;5054929;28;20267;-89
2021/12/28 02:10:41;;;;;;;38.30;24.67;;;1.60;92.50;;;;;;5055569;28;20169;-90
2021/12/28 02:13:07;;;;;;;36.77;23.87;;;1.60;92.40;;;;;;5058590;28;20188;-90
2021/12/28 02:15:34;;;;;;;37.07;24.43;;;1.50;92.50;;;;;;5058724;28;20582;-90
2021/12/28 02:18:00;;;;;;;40.03;25.93;;;1.60;92.40;;;;;;5058618;28;20170;-90
2021/12/28 02:20:26;;;;;;;36.00;24.07;;;1.60;92.50;;;;;;5058475;28;20550;-90
2021/12/28 02:22:52;;;;;;;38.00;25.17;;;1.60;92.50;;;;;;5058231;28;20184;-90
2021/12/28 02:25:18;;;;;;;38.77;24.40;;;1.50;92.50;;;;;;5058185;28;20204;-90
2021/12/28 02:27:44;;;;;;;39.57;25.10;;;1.50;92.50;;;;;;5058319;28;20182;-90
2021/12/28 02:30:14;;;;;;;38.73;25.97;;;1.60;92.60;;;;;;5058333;28;20179;-90
2021/12/28 02:32:42;;;;;;;36.83;25.20;;;1.60;92.50;;;;;;5058953;28;20159;-90
2021/12/28 02:35:11;;;;;;;40.80;24.10;;;1.50;92.50;;;;;;5058423;28;20212;-90
2021/12/28 02:37:38;;;;;;;34.87;23.80;;;1.50;92.50;;;;;;5058244;28;20181;-90
2021/12/28 02:40:07;;;;;;;35.40;23.87;;;1.50;92.50;;;;;;5058132;28;20638;-90
2021/12/28 02:42:32;;;;;;;36.03;24.57;;;1.50;92.50;;;;;;5057948;28;20182;-90
2021/12/28 02:45:09;;;;;;;37.13;24.40;;;1.60;92.60;;;;;;5058829;28;20205;-90
2021/12/28 02:47:36;;;;;;;36.30;24.63;;;1.50;92.50;;;;;;5058169;28;20217;-90
2021/12/28 02:50:06;;;;;;;38.87;24.33;;;1.50;92.50;;;;;;5058194;28;20177;-90
2021/12/28 02:52:40;;;;;;;37.00;25.00;;;1.50;92.60;;;;;;5058237;28;20209;-90
2021/12/28 02:55:08;;;;;;;35.23;24.37;;;1.50;92.60;;;;;;5075722;28;20159;-90
2021/12/28 02:57:33;;;;;;;38.23;24.77;;;1.50;92.60;;;;;;5057813;28;20206;-90
2021/12/28 03:00:00;;;;;;;36.30;25.03;;;1.50;92.60;;;;;;5057642;28;20220;-90
2021/12/28 03:02:25;;;;;;;39.20;26.07;;;1.50;92.60;;;;;;5058030;28;20175;-90
2021/12/28 03:04:51;;;;;;;37.70;24.40;;;1.50;92.60;;;;;;5057655;28;20205;-90
2021/12/28 03:07:17;;;;;;;36.07;25.17;;;1.50;92.60;;;;;;5057608;28;20203;-90
2021/12/28 03:09:42;;;;;;;37.60;25.13;;;1.50;92.70;;;;;;5057657;28;20225;-90
2021/12/28 03:12:09;;;;;;;39.97;25.93;;;1.50;92.60;;;;;;5058151;28;20171;-90
2021/12/28 03:14:35;;;;;;;42.60;24.93;;;1.50;92.60;;;;;;5057681;28;20184;-90
2021/12/28 03:17:01;;;;;;;38.73;25.07;;;1.60;92.60;;;;;;5057462;28;20214;-90
2021/12/28 03:19:27;;;;;;;37.73;24.63;;;1.60;92.70;;;;;;5075460;28;20762;-90
2021/12/28 03:21:52;;;;;;;37.77;24.80;;;1.60;92.60;;;;;;5057733;28;20279;-90
2021/12/28 03:24:18;;;;;;;39.27;25.40;;;1.60;92.60;;;;;;5056827;28;20290;-90
2021/12/28 03:26:44;;;;;;;34.53;25.17;;;1.70;92.50;;;;;;5057335;28;20540;-90
2021/12/28 03:29:10;;;;;;;35.50;25.17;;;1.70;92.50;;;;;;5057400;28;20186;-91
2021/12/28 03:31:35;;;;;;;38.70;26.57;;;1.70;92.50;;;;;;5057199;28;20230;-91
2021/12/28 03:34:02;;;;;;;41.00;27.07;;;1.70;92.50;;;;;;5057193;28;20177;-90
2021/12/28 03:36:28;;;;;;;40.80;27.53;;;1.70;92.50;;;;;;5057229;28;20201;-90
2021/12/28 03:38:57;;;;;;;41.47;26.60;;;1.80;92.60;;;;;;5057300;28;20185;-90
2021/12/28 03:41:24;;;;;;;40.33;27.20;;;1.80;92.50;;;;;;5057863;28;20709;-90
2021/12/28 03:43:52;;;;;;;42.23;26.90;;;1.80;92.40;;;;;;5056738;28;20205;-90
2021/12/28 03:46:19;;;;;;;44.40;27.90;;;1.80;92.40;;;;;;5057056;28;20560;-90
2021/12/28 03:48:45;;;;;;;37.13;25.43;;;1.80;92.40;;;;;;5057054;28;20664;-90
2021/12/28 03:51:11;;;;;;;39.93;26.50;;;1.80;92.40;;;;;;5057021;28;20182;-90
2021/12/28 03:53:37;;;;;;;40.87;26.30;;;1.80;92.40;;;;;;5057078;28;20210;-90
2021/12/28 03:56:05;;;;;;;41.70;26.33;;;1.80;92.40;;;;;;5056643;28;20202;-90
2021/12/28 03:58:31;;;;;;;40.10;25.60;;;1.80;92.40;;;;;;5056646;28;20205;-90
2021/12/28 04:00:57;;;;;;;39.47;25.53;;;1.80;92.30;;;;;;5056637;28;20189;-90
2021/12/28 04:03:22;;;;;;;37.53;25.43;;;1.80;92.40;;;;;;5056577;28;20208;-90
2021/12/28 04:05:48;;;;;;;38.83;26.03;;;1.80;92.40;;;;;;5056541;28;20242;-90
2021/12/28 04:08:20;;;;;;;36.27;23.60;;;1.80;92.40;;;;;;5056558;28;20210;-91
2021/12/28 04:10:52;;;;;;;36.50;24.20;;;1.80;92.40;;;;;;5057349;28;20197;-91
2021/12/28 04:13:20;;;;;;;37.63;24.80;;;1.80;92.40;;;;;;5057170;28;20200;-90
2021/12/28 04:15:45;;;;;;;37.13;24.67;;;1.80;92.50;;;;;;5056350;28;20243;-90
2021/12/28 04:18:11;;;;;;;36.70;23.70;;;1.90;92.50;;;;;;5056542;28;20562;-91
2021/12/28 04:20:37;;;;;;;36.33;23.90;;;1.90;92.40;;;;;;5056610;28;20190;-91
2021/12/28 04:23:03;;;;;;;37.10;24.70;;;1.80;92.40;;;;;;5056339;28;20205;-91
2021/12/28 04:25:29;;;;;;;38.20;25.00;;;1.90;92.40;;;;;;5056535;28;20255;-91
2021/12/28 04:27:54;;;;;;;37.57;24.03;;;1.90;92.40;;;;;;5074072;28;20186;-91
2021/12/28 04:30:20;;;;;;;34.90;23.63;;;1.80;92.40;;;;;;5056215;28;20175;-91
2021/12/28 04:32:46;;;;;;;33.07;24.03;;;1.90;92.40;;;;;;5056269;28;20194;-90
2021/12/28 04:35:12;;;;;;;35.13;24.20;;;1.90;92.40;;;;;;5056293;28;20184;-90
2021/12/28 04:37:38;;;;;;;32.77;23.37;;;1.90;92.30;;;;;;5056451;28;20264;-90
2021/12/28 04:40:07;;;;;;;38.30;23.37;;;1.90;92.30;;;;;;5056252;28;20179;-90
2021/12/28 04:42:32;;;;;;;37.20;23.33;;;1.90;92.30;;;;;;5056089;28;20540;-91
2021/12/28 04:44:58;;;;;;;35.37;23.73;;;1.80;92.30;;;;;;5055811;28;20210;-90
2021/12/28 04:47:24;;;;;;;43.77;24.80;;;1.90;92.40;;;;;;5055916;28;20182;-91
2021/12/28 04:49:50;;;;;;;37.17;23.20;;;1.90;92.40;;;;;;5055962;28;20200;-91
2021/12/28 04:52:16;;;;;;;31.37;23.67;;;1.90;92.40;;;;;;5055755;28;20208;-91
2021/12/28 04:54:42;;;;;;;34.73;23.33;;;2.00;92.30;;;;;;5056326;28;20185;-91
2021/12/28 04:57:08;;;;;;;37.53;23.80;;;1.90;92.30;;;;;;5055719;28;20685;-91
2021/12/28 04:59:35;;;;;;;36.23;24.03;;;1.90;92.30;;;;;;5055829;28;20242;-91
2021/12/28 05:02:01;;;;;;;38.40;23.97;;;1.90;92.30;;;;;;5055764;28;20176;-90
2021/12/28 05:04:26;;;;;;;35.07;23.33;;;1.90;92.30;;;;;;5055619;28;20333;-90
2021/12/28 05:06:53;;;;;;;35.60;23.83;;;1.90;92.30;;;;;;5055670;28;20236;-91
2021/12/28 05:09:19;;;;;;;36.47;23.43;;;1.90;92.40;;;;;;5055604;28;20176;-91
2021/12/28 05:11:45;;;;;;;34.03;23.70;;;1.90;92.40;;;;;;5055577;28;20258;-91
2021/12/28 05:14:11;;;;;;;36.27;24.23;;;1.90;92.30;;;;;;5055992;28;20189;-90
2021/12/28 05:16:37;;;;;;;35.53;24.87;;;1.90;92.30;;;;;;5055552;28;20229;-91
2021/12/28 05:19:05;;;;;;;37.50;23.70;;;1.90;92.30;;;;;;5055631;28;20276;-91
2021/12/28 05:21:32;;;;;;;37.63;24.20;;;1.90;92.30;;;;;;5055627;28;20183;-91
2021/12/28 05:23:58;;;;;;;34.97;23.73;;;1.90;92.30;;;;;;5055369;28;20210;-91
2021/12/28 05:26:24;;;;;;;37.63;24.03;;;1.90;92.30;;;;;;5055406;28;20203;-91
2021/12/28 05:28:51;;;;;;;35.90;23.00;;;1.90;92.30;;;;;;5055538;28;20178;-91
2021/12/28 05:31:17;;;;;;;39.13;24.13;;;1.90;92.30;;;;;;5055466;28;20184;-91
2021/12/28 05:33:43;;;;;;;40.17;25.73;;;1.80;92.30;;;;;;5055312;28;20207;-91
2021/12/28 05:36:10;;;;;;;36.13;23.63;;;1.90;92.40;;;;;;5055127;28;20197;-91
2021/12/28 05:38:36;;;;;;;37.47;24.60;;;1.90;92.40;;;;;;5055266;28;20338;-91
2021/12/28 05:41:04;;;;;;;38.17;25.00;;;1.80;92.40;;;;;;5055327;28;20188;-91
2021/12/28 05:43:30;;;;;;;46.03;25.00;;;1.90;92.40;;;;;;5055175;28;20298;-90
2021/12/28 05:45:56;;;;;;;41.67;25.50;;;1.90;92.40;;;;;;5056551;28;20683;-91
2021/12/28 05:48:22;;;;;;;35.57;24.47;;;1.90;92.40;;;;;;5059498;28;20250;-91
2021/12/28 05:50:47;;;;;;;37.90;25.77;;;1.90;92.40;;;;;;5059191;28;20183;-91
2021/12/28 05:53:13;;;;;;;38.47;24.67;;;1.90;92.40;;;;;;5059244;28;20184;-91
2021/12/28 05:55:39;;;;;;;37.83;24.87;;;1.90;92.40;;;;;;5059122;28;20591;-91
2021/12/28 05:58:04;;;;;;;35.40;25.23;;;1.90;92.40;;;;;;5059246;28;20180;-91
2021/12/28 06:00:30;;;;;;;39.70;25.03;;;1.90;92.40;;;;;;5058936;28;20217;-90
2021/12/28 06:02:57;;;;;;;36.73;25.23;;;1.90;92.40;;;;;;5058875;28;20188;-91
2021/12/28 06:05:24;;;;;;;40.03;25.87;;;2.00;92.40;;;;;;5059073;28;20198;-91
2021/12/28 06:07:50;;;;;;;36.17;25.67;;;1.90;92.40;;;;;;5077020;28;20703;-91
2021/12/28 06:10:16;;;;;;;37.50;25.77;;;1.90;92.40;;;;;;5059013;28;20190;-91
2021/12/28 06:12:42;;;;;;;37.50;25.50;;;1.90;92.50;;;;;;5059752;28;20183;-91
2021/12/28 06:15:09;;;;;;;41.53;25.97;;;2.00;92.60;;;;;;5058644;28;20185;-91
2021/12/28 06:17:34;;;;;;;37.63;25.83;;;1.90;92.60;;;;;;5058946;28;20311;-91
2021/12/28 06:20:00;;;;;;;43.40;26.63;;;1.90;92.70;;;;;;5076665;28;20218;-91
2021/12/28 06:22:26;;;;;;;42.27;26.97;;;1.90;92.90;;;;;;5058664;28;20207;-91
2021/12/28 06:24:52;;;;;;;37.60;25.83;;;1.90;93.00;;;;;;5058726;28;20210;-91
2021/12/28 06:27:18;;;;;;;44.00;26.93;;;1.90;93.10;;;;;;5058535;28;20203;-91
2021/12/28 06:29:44;;;;;;;40.30;27.57;;;1.90;93.20;;;;;;5058840;28;20182;-91
2021/12/28 06:32:09;;;;;;;40.60;26.37;;;1.90;93.40;;;;;;5058589;28;20223;-91
2021/12/28 06:34:35;;;;;;;41.40;25.73;;;1.90;93.50;;;;;;5058751;28;20192;-91
2021/12/28 06:37:01;;;;;;;42.83;28.10;;;1.90;93.60;;;;;;5058905;28;20564;-91
2021/12/28 06:39:27;;;;;;;43.57;27.87;;;1.90;93.60;;;;;;5058648;28;20186;-91
2021/12/28 06:41:52;;;;;;;45.97;27.83;;;1.90;93.70;;;;;;5058987;28;20273;-91
2021/12/28 06:44:18;;;;;;;42.70;28.20;;;1.80;93.80;;;;;;5058572;28;20213;-91
2021/12/28 06:46:44;;;;;;;51.23;29.63;;;1.90;93.80;;;;;;5058705;28;20257;-91
2021/12/28 06:49:09;;;;;;;41.50;29.27;;;1.80;93.80;;;;;;5058665;28;20180;-91
2021/12/28 06:51:35;;;;;;;45.03;28.23;;;1.80;93.90;;;;;;5058635;28;20223;-91
2021/12/28 06:54:01;;;;;;;48.03;28.23;;;1.80;94.00;;;;;;5058474;28;20526;-91
2021/12/28 06:56:27;;;;;;;49.30;30.50;;;1.90;94.00;;;;;;5058269;28;20208;-91
2021/12/28 06:58:52;;;;;;;47.43;28.47;;;1.90;94.00;;;;;;5058505;28;20240;-91
2021/12/28 07:01:18;;;;;;;42.60;28.40;;;1.90;94.00;;;;;;5058402;28;20210;-91
2021/12/28 07:03:44;;;;;;;39.00;27.67;;;1.90;94.10;;;;;;5058273;28;20204;-91
2021/12/28 07:06:10;;;;;;;47.07;28.67;;;1.80;94.10;;;;;;5058144;28;20204;-91
2021/12/28 07:08:36;;;;;;;48.07;29.93;;;1.80;94.10;;;;;;5058082;28;20182;-91
2021/12/28 07:11:03;;;;;;;42.53;27.33;;;1.90;94.20;;;;;;5058232;28;20182;-91
2021/12/28 07:13:29;;;;;;;46.33;29.63;;;1.90;94.20;;;;;;5058041;28;20181;-91
2021/12/28 07:15:55;;;;;;;47.60;29.90;;;1.90;94.30;;;;;;5057742;28;20321;-91
2021/12/28 07:18:20;;;;;;;42.73;27.87;;;1.90;94.30;;;;;;5057950;28;20207;-91
2021/12/28 07:20:48;;;;;;;45.70;28.33;;;1.90;94.30;;;;;;5058653;28;20190;-91
2021/12/28 07:23:14;;;;;;;42.07;27.60;;;1.90;94.40;;;;;;5057564;28;20214;-91
2021/12/28 07:25:39;;;;;;;43.63;27.77;;;1.90;94.40;;;;;;5057569;28;20201;-91
2021/12/28 07:28:05;;;;;;;42.17;28.27;;;1.90;94.40;;;;;;5057827;28;20182;-91
2021/12/28 07:30:31;;;;;;;48.20;29.47;;;1.90;94.50;;;;;;5058375;28;20210;-91
2021/12/28 07:32:57;;;;;;;45.73;27.77;;;2.00;94.50;;;;;;5057845;28;20659;-91
2021/12/28 07:35:22;;;;;;;45.03;29.17;;;2.00;94.50;;;;;;5075320;28;20201;-91
2021/12/28 07:37:48;;;;;;;44.43;28.27;;;1.90;94.50;;;;;;5057278;28;20182;-91
2021/12/28 07:40:14;;;;;;;40.03;25.97;;;2.00;94.50;;;;;;5057542;28;20192;-91
2021/12/28 07:42:40;;;;;;;43.60;29.13;;;1.90;94.50;;;;;;5057443;28;20178;-91
2021/12/28 07:45:09;;;;;;;36.53;26.30;;;2.00;94.60;;;;;;5057206;28;20211;-90
2021/12/28 07:47:35;;;;;;;40.97;26.57;;;2.00;94.60;;;;;;5057523;28;20573;-91
2021/12/28 07:50:02;;;;;;;41.00;26.73;;;2.00;94.60;;;;;;5057150;28;20201;-91
2021/12/28 07:52:28;;;;;;;43.67;27.57;;;2.00;94.60;;;;;;5057171;28;20173;-91
2021/12/28 07:54:54;;;;;;;41.17;26.70;;;2.00;94.60;;;;;;5057115;28;20182;-91
2021/12/28 07:57:19;;;;;;;40.50;26.33;;;2.00;94.60;;;;;;5057408;28;20195;-91
2021/12/28 07:59:45;;;;;;;39.07;26.90;;;2.00;94.60;;;;;;5057108;28;20197;-91
2021/12/28 08:02:11;;;;;;;39.07;26.40;;;2.00;94.60;;;;;;5057045;28;20199;-91
2021/12/28 08:04:37;;;;;;;41.33;27.50;;;2.00;94.60;;;;;;5056809;28;20205;-91
2021/12/28 08:07:03;;;;;;;37.73;26.73;;;2.00;94.60;;;;;;5056799;28;20197;-91
2021/12/28 08:09:28;;;;;;;37.93;27.27;;;2.00;94.60;;;;;;5056215;28;20192;-91
2021/12/28 08:11:54;;;;;;;39.63;27.80;;;2.00;94.60;;;;;;5074882;28;20185;-91
2021/12/28 08:14:19;;;;;;;43.93;27.27;;;2.00;94.60;;;;;;5056723;28;20230;-91
2021/12/28 08:16:46;;;;;;;45.20;28.53;;;2.00;94.60;;;;;;5057043;28;20214;-91
2021/12/28 08:19:11;;;;;;;43.80;28.20;;;2.00;94.60;;;;;;5057060;28;20242;-91
2021/12/28 08:21:37;;;;;;;46.50;28.50;;;2.00;94.60;;;;;;5057331;28;20186;-91
2021/12/28 08:24:04;;;;;;;46.63;28.00;;;2.00;94.60;;;;;;5056607;28;20203;-91
2021/12/28 08:26:29;;;;;;;41.40;28.90;;;2.00;94.60;;;;;;5056227;28;20202;-91
2021/12/28 08:28:55;;;;;;;45.33;29.40;;;2.00;94.60;;;;;;5056510;28;20273;-91
2021/12/28 08:31:21;;;;;;;47.63;27.87;;;2.00;94.60;;;;;;5056861;28;20178;-91
2021/12/28 08:33:46;;;;;;;41.40;26.97;;;2.00;94.60;;;;;;5056562;28;20638;-92
2021/12/28 08:36:12;;;;;;;49.70;27.90;;;1.90;94.60;;;;;;5056341;28;20285;-91
2021/12/28 08:38:39;;;;;;;48.57;29.63;;;1.90;94.50;;;;;;5056485;28;20190;-91
2021/12/28 08:41:05;;;;;;;48.20;29.03;;;2.00;94.60;;;;;;5057186;28;20525;-91
2021/12/28 08:43:31;;;;;;;40.13;27.40;;;1.90;94.60;;;;;;5056274;28;20209;-91
2021/12/28 08:45:57;;;;;;;40.77;27.60;;;1.90;94.60;;;;;;5056235;28;20281;-91
2021/12/28 08:48:23;;;;;;;43.57;28.27;;;1.90;94.60;;;;;;5056252;28;20177;-91
2021/12/28 08:50:49;;;;;;;47.47;29.73;;;2.00;94.60;;;;;;5056099;28;20185;-91
2021/12/28 08:53:15;;;;;;;48.03;28.97;;;2.00;94.60;;;;;;5056217;28;20193;-91
2021/12/28 08:55:41;;;;;;;45.60;28.90;;;2.00;94.60;;;;;;5056107;28;20545;-91
2021/12/28 08:58:07;;;;;;;48.27;31.00;;;2.00;94.60;;;;;;5057561;28;20205;-92
2021/12/28 09:00:34;;;;;;;46.53;30.07;;;2.00;94.60;;;;;;5056596;28;20213;-91
2021/12/28 09:03:01;;;;;;;46.33;30.50;;;2.10;94.60;;;;;;5056484;28;20277;-92
2021/12/28 09:05:29;;;;;;;51.20;29.83;;;2.10;94.60;;;;;;5056098;28;20387;-91
2021/12/28 09:07:56;;;;;;;50.93;30.27;;;2.10;94.60;;;;;;5059526;28;20182;-92
2021/12/28 09:10:24;;;;;;;50.20;31.10;;;2.20;94.60;;;;;;5061026;28;20210;-92
2021/12/28 09:12:49;;;;;;;48.07;30.40;;;2.20;94.60;;;;;;5057367;28;20177;-91
2021/12/28 09:15:15;;;;;;;44.43;29.13;;;2.20;94.60;;;;;;5056523;28;20205;-92
2021/12/28 09:17:41;;;;;;;52.93;31.50;;;2.20;94.60;;;;;;5056895;28;20246;-92
2021/12/28 09:20:11;;;;;;;52.23;31.60;;;2.10;94.60;;;;;;5055361;28;20634;-93
2021/12/28 09:22:37;;;;;;;50.53;30.43;;;2.20;94.70;;;;;;5056227;28;20182;-92
2021/12/28 09:25:03;;;;;;;57.17;32.90;;;2.10;94.70;;;;;;5057146;28;20203;-93
2021/12/28 09:27:29;;;;;;;54.37;32.97;;;2.20;94.70;;;;;;5056941;28;20192;-92
2021/12/28 09:29:55;;;;;;;54.97;31.93;;;2.30;94.80;;;;;;5057231;28;20179;-92
2021/12/28 09:32:20;;;;;;;55.37;31.20;;;2.30;94.70;;;;;;5056891;28;20182;-93
2021/12/28 09:34:50;;;;;;;55.57;30.93;;;2.30;94.80;;;;;;5056511;28;20193;-92
2021/12/28 09:37:16;;;;;;;57.03;31.97;;;2.30;94.80;;;;;;5056095;28;20264;-92
2021/12/28 09:39:42;;;;;;;52.57;30.67;;;2.30;94.80;;;;;;5056435;28;20227;-92
2021/12/28 09:42:08;;;;;;;58.07;32.57;;;2.30;94.80;;;;;;5056139;28;20179;-92
2021/12/28 09:44:35;;;;;;;63.10;32.87;;;2.30;94.80;;;;;;5056479;28;20211;-93
2021/12/28 09:47:02;;;;;;;57.37;30.40;;;2.30;94.80;;;;;;5056292;28;20214;-92
2021/12/28 09:49:28;;;;;;;60.33;32.83;;;2.30;94.90;;;;;;5055753;28;20176;-92
2021/12/28 09:51:59;;;;;;;55.47;31.30;;;2.30;94.90;;;;;;5058552;28;20670;-93
2021/12/28 09:54:27;;;;;;;58.97;30.93;;;2.30;94.90;;;;;;5060293;28;20246;-93
2021/12/28 09:56:55;;;;;;;63.13;31.87;;;2.30;94.90;;;;;;5061415;28;20209;-94
2021/12/28 09:59:21;;;;;;;60.30;32.23;;;2.30;94.90;;;;;;5059889;28;20186;-93
2021/12/28 10:01:47;;;;;;;65.80;32.53;;;2.30;95.00;;;;;;5058803;28;20186;-93
2021/12/28 10:04:13;;;;;;;62.53;33.70;;;2.30;95.00;;;;;;5061915;28;20271;-93
2021/12/28 10:06:39;;;;;;;63.00;32.60;;;2.40;95.00;;;;;;5062359;28;20233;-93
2021/12/28 10:09:16;;;;;;;69.60;34.50;;;2.40;95.00;;;;;;5060678;28;20178;-93
2021/12/28 10:11:53;;;;;;;64.00;32.97;;;2.40;95.00;;;;;;5060092;28;20174;-93
2021/12/28 10:14:26;;;;;;;61.43;31.63;;;2.40;95.00;;;;;;5057514;28;20182;-93
2021/12/28 10:16:54;;;;;;;62.33;33.30;;;2.40;95.00;;;;;;5056746;28;20227;-93
2021/12/28 10:19:37;;;;;;;67.13;32.83;;;2.50;95.10;;;;;;5056806;28;20183;-92
2021/12/28 10:22:27;;;;;;;64.20;31.40;;;2.50;95.10;;;;;;5056372;28;20171;-92
2021/12/28 10:24:59;;;;;;;62.70;31.00;;;2.50;95.10;;;;;;5055782;28;20594;-93
2021/12/28 10:27:27;;;;;;;63.47;32.17;;;2.50;95.10;;;;;;5055699;28;20172;-93
2021/12/28 10:29:54;;;;;;;69.23;33.17;;;2.50;95.10;;;;;;5056317;28;20590;-93
2021/12/28 10:32:22;;;;;;;62.03;31.83;;;2.50;95.10;;;;;;5059968;28;20182;-92
2021/12/28 10:34:56;;;;;;;70.70;33.73;;;2.60;95.10;;;;;;5063877;28;20175;-92
2021/12/28 10:37:29;;;;;;;63.93;32.47;;;2.50;95.20;;;;;;5063245;28;20166;-92
2021/12/28 10:39:58;;;;;;;56.50;30.73;;;2.50;95.10;;;;;;5065864;28;20184;-93
2021/12/28 10:42:50;;;;;;;66.00;32.60;;;2.50;95.20;;;;;;5071214;28;20641;-93
2021/12/28 10:45:28;;;;;;;60.27;30.93;;;2.50;95.20;;;;;;5065999;28;20209;-93
2021/12/28 10:47:56;;;;;;;72.97;35.20;;;2.50;95.20;;;;;;5061669;28;20225;-93
2021/12/28 10:50:23;;;;;;;66.27;32.60;;;2.60;95.20;;;;;;5063749;28;20190;-93
2021/12/28 10:52:59;;;;;;;69.17;33.13;;;2.60;95.20;;;;;;5060126;28;20659;-93
2021/12/28 10:55:26;;;;;;;70.07;33.87;;;2.60;95.20;;;;;;5061434;28;20290;-93
2021/12/28 10:57:52;;;;;;;72.97;33.53;;;2.60;95.20;;;;;;5062844;28;20202;-93
2021/12/28 11:00:25;;;;;;;67.10;33.93;;;2.70;95.30;;;;;;5062378;28;20654;-94
2021/12/28 11:03:10;;;;;;;70.47;33.43;;;2.70;95.30;;;;;;5065269;28;20603;-92
2021/12/28 11:05:36;;;;;;;67.50;33.93;;;2.80;95.30;;;;;;5062590;28;20210;-92
2021/12/28 11:08:02;;;;;;;71.47;33.53;;;2.80;95.30;;;;;;5063747;28;20185;-92
2021/12/28 11:10:28;;;;;;;67.97;36.10;;;2.80;95.30;;;;;;5062278;28;20186;-92
2021/12/28 11:12:55;;;;;;;69.33;34.23;;;2.80;95.30;;;;;;5060698;28;20190;-92
2021/12/28 11:15:25;;;;;;;65.17;33.93;;;2.80;95.30;;;;;;5066432;28;20245;-93
2021/12/28 11:17:52;;;;;;;63.93;32.47;;;2.80;95.30;;;;;;5073830;28;20265;-93
2021/12/28 11:20:29;;;;;;;69.90;33.27;;;2.80;95.30;;;;;;5072910;28;20194;-93
2021/12/28 11:23:22;;;;;;;64.30;30.63;;;2.90;95.30;;;;;;5071197;28;20171;-93
2021/12/28 11:26:05;;;;;;;68.00;30.53;;;2.90;95.30;;;;;;5069000;28;20195;-92
2021/12/28 11:28:31;;;;;;;71.43;32.20;;;2.90;95.30;;;;;;5071454;28;20167;-92
2021/12/28 11:31:01;;;;;;;67.17;31.30;;;3.00;95.30;;;;;;5070063;28;20257;-93
2021/12/28 11:33:40;;;;;;;64.43;32.70;;;3.00;95.30;;;;;;5071694;28;20179;-93
2021/12/28 11:36:06;;;;;;;66.67;32.77;;;3.00;95.30;;;;;;5069069;28;20198;-92
2021/12/28 11:38:33;;;;;;;75.87;34.33;;;3.00;95.30;;;;;;5068472;28;20175;-93
2021/12/28 11:40:59;;;;;;;67.13;31.97;;;3.00;95.30;;;;;;5070577;28;20186;-93
2021/12/28 11:43:25;;;;;;;70.73;33.17;;;3.00;95.30;;;;;;5075380;28;20229;-93
2021/12/28 11:45:51;;;;;;;65.03;32.27;;;3.00;95.30;;;;;;5081219;28;20207;-93
2021/12/28 11:48:16;;;;;;;68.60;33.83;;;3.00;95.30;;;;;;5079104;28;20180;-93
2021/12/28 11:50:42;;;;;;;65.63;34.03;;;3.00;95.20;;;;;;5081823;28;20163;-93
2021/12/28 11:53:11;;;;;;;71.77;34.93;;;3.00;95.20;;;;;;5080929;28;20163;-93
2021/12/28 11:55:40;;;;;;;72.00;33.73;;;2.90;95.20;;;;;;5082422;28;20182;-93
2021/12/28 11:58:06;;;;;;;79.83;37.27;;;2.90;95.20;;;;;;5082093;28;20173;-93
2021/12/28 12:00:43;;;;;;;74.93;37.37;;;2.80;95.20;;;;;;5078265;28;20211;-92
2021/12/28 12:03:33;;;;;;;77.30;37.63;;;2.80;95.20;;;;;;5070156;28;20167;-92
2021/12/28 12:05:58;;;;;;;71.07;34.67;;;2.80;95.20;;;;;;5064290;28;20199;-92
2021/12/28 12:08:24;;;;;;;74.13;36.47;;;2.80;95.10;;;;;;5072929;28;20679;-93
2021/12/28 12:11:00;;;;;;;70.23;36.03;;;2.80;95.10;;;;;;5072692;28;20178;-92
2021/12/28 12:13:28;;;;;;;78.77;37.27;;;2.80;95.10;;;;;;5072107;28;20151;-93
2021/12/28 12:15:58;;;;;;;81.90;37.77;;;2.80;95.10;;;;;;5067617;28;20710;-93
2021/12/28 12:18:30;;;;;;;79.33;38.87;;;2.80;95.10;;;;;;5067703;28;20201;-93
2021/12/28 12:21:05;;;;;;;77.60;37.53;;;2.80;95.10;;;;;;5066378;28;20244;-93
2021/12/28 12:23:40;;;;;;;74.40;36.77;;;2.80;95.10;;;;;;5065508;28;20208;-92
2021/12/28 12:26:09;;;;;;;75.60;37.40;;;2.80;95.10;;;;;;5062310;28;20199;-92
2021/12/28 12:28:42;;;;;;;83.07;38.70;;;2.80;95.10;;;;;;5062571;28;20170;-93
2021/12/28 12:31:28;;;;;;;69.73;35.37;;;2.80;95.10;;;;;;5064386;28;20196;-92
2021/12/28 12:33:55;;;;;;;75.53;37.77;;;2.80;95.10;;;;;;5062979;28;20171;-92
2021/12/28 12:36:38;;;;;;;75.70;36.43;;;2.80;95.10;;;;;;5068588;28;20269;-92
2021/12/28 12:39:05;;;;;;;72.87;38.07;;;2.80;95.00;;;;;;5070040;28;20266;-92